Hovedside
METAR-TAF:

METAR-TAF

Lufthavner :

Honiara internasjonale lufthavn

Honiara, Guadalcanal, Salomonøyene

breddegrad: 09-25S, lengdegrad: 160-03E, høyde over havet: 8 m

Gjeldene værobservasjon

Denne rapporten ble laget for 53 minutter siden, klokken 23:00 UTC
Vind 3 kt fra Nordvest
Temperatur 30°C
Luftfuktighet 79%
Trykk 1007 hPa
Sikt 10 km eller mer
Spredte skyer i en høyde av 1800 ft
Brutte skyer i en høyde av 30000 ft
dis

METAR: AGGH 132300Z 32003KT 9999 HZ SCT018 BKN300 30/26 Q1007

Tid: 10:53 (23:53 UTC)

Varsel

Denne rapporten ble laget for 43 minutter siden, klokken 23:10 UTC
Varsel gyldig fra 14. klokken 00 UTC til 14. klokken 24 UTC
Vind 10 kt fra Nordvest
Sikt 10 km eller mer
Få skyer i en høyde av 1800 ft
Sannsynlighet 40%
mellom IN og TE UTC
Sikt: 1006 m
Brutte skyer i en høyde av 1800 ft
Få skyer i en høyde av 1900 ft, Bygeskyer.

TAF: AGGH 132310Z 1400/1424 32010KT 9999 FEW018 PROB40 INTER 1400/1406 5000 TSSH BKN018 FEW019CB T 31 32 30 28 Q 1007 1005 1004 1006

Værobservasjoner og værvarsel for over 4000 flyplasser (METAR- og TAF-rapporter).

Tilgjengelige stasjoner er representert av de røde og gule prikkene på kartet.

Hold musepekeren over prikken for å se navnet på stasjonen.

Klikk så for å se værobservasjoner og -varsler.

For å forandre kartet kan du klikke på den grønne knappen med svart kryss for å zoome inn, på den grønne knappen med strek for å zoome ut, eller på de grønne pilene for å se tilstøtende kart.


METAR-TAF: